createdAt,value
2019-05-22T00:00:58.967Z,24.43
2019-05-22T00:03:33.507Z,24.57
2019-05-22T00:06:03.671Z,25.83
2019-05-22T00:08:33.984Z,25.67
2019-05-22T00:11:05.399Z,29.73
2019-05-22T00:13:38.935Z,29.23
2019-05-22T00:16:09.310Z,32.40
2019-05-22T00:18:39.842Z,27.97
2019-05-22T00:21:10.129Z,30.43
2019-05-22T00:23:40.921Z,29.53
2019-05-22T00:26:11.570Z,28.97
2019-05-22T00:28:41.498Z,31.53
2019-05-22T00:31:12.658Z,28.37
2019-05-22T00:33:41.970Z,29.90
2019-05-22T00:36:13.528Z,25.50
2019-05-22T00:38:43.507Z,27.73
2019-05-22T00:41:12.599Z,30.40
2019-05-22T00:43:44.508Z,25.77
2019-05-22T00:46:18.905Z,27.80
2019-05-22T00:48:48.378Z,22.47
2019-05-22T00:51:42.032Z,23.63
2019-05-22T00:54:34.994Z,22.10
2019-05-22T00:57:14.851Z,24.33
2019-05-22T00:59:46.702Z,22.50
2019-05-22T01:02:19.160Z,22.97
2019-05-22T01:04:52.083Z,23.27
2019-05-22T01:07:30.101Z,21.67
2019-05-22T01:09:59.936Z,22.23
2019-05-22T01:12:30.488Z,22.47
2019-05-22T01:15:06.836Z,21.57
2019-05-22T01:17:38.056Z,20.30
2019-05-22T01:20:10.538Z,18.43
2019-05-22T01:22:41.631Z,20.70
2019-05-22T01:25:14.080Z,19.97
2019-05-22T01:27:43.853Z,19.27
2019-05-22T01:30:23.054Z,17.40
2019-05-22T01:32:53.501Z,16.77
2019-05-22T01:35:29.054Z,17.60
2019-05-22T01:37:59.757Z,18.20
2019-05-22T01:40:41.403Z,18.63
2019-05-22T01:43:11.694Z,18.60
2019-05-22T01:45:52.325Z,16.40
2019-05-22T01:48:27.370Z,15.53
2019-05-22T01:50:57.885Z,14.37
2019-05-22T01:53:32.631Z,15.57
2019-05-22T01:56:06.496Z,16.63
2019-05-22T01:58:37.380Z,17.50
2019-05-22T02:01:14.675Z,16.53
2019-05-22T02:03:47.111Z,14.00
2019-05-22T02:06:19.303Z,15.50
2019-05-22T02:08:53.217Z,13.90
2019-05-22T02:11:24.517Z,15.03
2019-05-22T02:14:02.134Z,13.27
2019-05-22T02:16:32.950Z,19.23
2019-05-22T02:19:04.955Z,15.67
2019-05-22T02:21:35.702Z,14.00
2019-05-22T02:24:06.286Z,15.43
2019-05-22T02:26:37.144Z,14.50
2019-05-22T02:29:08.676Z,12.73
2019-05-22T02:31:42.463Z,11.10
2019-05-22T02:34:12.203Z,11.30
2019-05-22T02:36:42.398Z,11.83
2019-05-22T02:39:21.495Z,8.57
2019-05-22T02:41:54.948Z,12.47
2019-05-22T02:44:25.241Z,10.00
2019-05-22T02:46:55.779Z,10.20
2019-05-22T02:49:26.346Z,9.33
2019-05-22T02:51:57.094Z,8.33
2019-05-22T02:54:29.423Z,9.63
2019-05-22T02:56:58.711Z,8.37
2019-05-22T02:59:28.506Z,7.80
2019-05-22T03:01:57.960Z,7.97
2019-05-22T03:04:30.343Z,8.43
2019-05-22T03:06:59.928Z,8.80
2019-05-22T03:09:31.725Z,9.40
2019-05-22T03:12:04.042Z,8.40
2019-05-22T03:14:35.307Z,8.93
2019-05-22T03:17:09.551Z,8.97
2019-05-22T03:19:42.659Z,8.43
2019-05-22T03:22:25.761Z,12.70
2019-05-22T03:24:56.970Z,11.27
2019-05-22T03:27:39.753Z,9.17
2019-05-22T03:30:27.794Z,10.13
2019-05-22T03:32:57.466Z,9.77
2019-05-22T03:35:30.147Z,12.23
2019-05-22T03:38:01.441Z,9.20
2019-05-22T03:40:31.879Z,9.60
2019-05-22T03:43:05.106Z,9.43
2019-05-22T03:45:35.974Z,10.50
2019-05-22T03:48:06.219Z,9.93
2019-05-22T03:50:37.404Z,9.93
2019-05-22T03:53:17.016Z,10.00
2019-05-22T03:55:47.608Z,10.67
2019-05-22T03:58:17.970Z,9.40
2019-05-22T04:00:48.036Z,10.47
2019-05-22T04:03:17.689Z,9.47
2019-05-22T04:05:48.531Z,8.70
2019-05-22T04:08:19.252Z,10.73
2019-05-22T04:11:08.322Z,9.67
2019-05-22T04:13:37.576Z,11.13
2019-05-22T04:16:10.134Z,9.90
2019-05-22T04:18:40.604Z,10.63
2019-05-22T04:21:10.033Z,11.40
2019-05-22T04:23:39.231Z,10.10
2019-05-22T04:26:11.451Z,10.90
2019-05-22T04:28:49.628Z,10.93
2019-05-22T04:31:22.823Z,11.13
2019-05-22T04:33:51.971Z,11.53
2019-05-22T04:36:24.012Z,10.17
2019-05-22T04:38:53.452Z,11.83
2019-05-22T04:41:22.841Z,13.70
2019-05-22T04:43:53.452Z,13.00
2019-05-22T04:46:23.017Z,11.60
2019-05-22T04:48:52.424Z,10.80
2019-05-22T04:51:28.323Z,10.57
2019-05-22T04:53:58.060Z,10.60
2019-05-22T04:56:28.491Z,11.77
2019-05-22T04:58:59.235Z,12.40
2019-05-22T05:01:29.845Z,12.73
2019-05-22T05:03:59.880Z,11.73
2019-05-22T05:06:31.120Z,12.17
2019-05-22T05:09:00.442Z,12.20
2019-05-22T05:11:30.103Z,11.37
2019-05-22T05:13:59.183Z,11.17
2019-05-22T05:16:28.279Z,9.50
2019-05-22T05:18:57.598Z,9.63
2019-05-22T05:21:26.742Z,8.63
2019-05-22T05:23:56.053Z,7.50
2019-05-22T05:26:26.718Z,7.33
2019-05-22T05:28:56.432Z,6.03
2019-05-22T05:31:26.543Z,5.43
2019-05-22T05:34:34.466Z,7.27
2019-05-22T05:37:07.016Z,7.93
2019-05-22T05:40:27.459Z,8.67
2019-05-22T05:42:57.239Z,7.83
2019-05-22T05:45:27.479Z,4.43
2019-05-22T05:47:57.715Z,6.87
2019-05-22T05:50:38.925Z,6.60
2019-05-22T05:52:59.763Z,5.33
2019-05-22T05:55:30.801Z,7.20
2019-05-22T05:58:26.645Z,9.37
2019-05-22T06:00:59.704Z,9.80
2019-05-22T06:03:37.679Z,6.73
2019-05-22T06:06:54.812Z,7.67
2019-05-22T06:09:25.901Z,7.57
2019-05-22T06:11:58.083Z,7.17
2019-05-22T06:14:29.136Z,6.43
2019-05-22T06:17:43.815Z,7.53
2019-05-22T06:20:19.107Z,9.30
2019-05-22T06:23:26.168Z,8.70
2019-05-22T06:25:56.979Z,8.87
2019-05-22T06:28:28.431Z,8.47
2019-05-22T06:31:01.423Z,11.17
2019-05-22T06:33:33.961Z,7.40
2019-05-22T06:36:07.357Z,9.00
2019-05-22T06:39:07.446Z,9.33
2019-05-22T06:41:38.610Z,7.57
2019-05-22T06:44:42.763Z,8.43
2019-05-22T06:47:19.829Z,10.50
2019-05-22T06:49:53.437Z,7.07
2019-05-22T06:52:23.222Z,8.53
2019-05-22T06:54:52.723Z,8.47
2019-05-22T06:57:36.850Z,7.50
2019-05-22T07:00:27.162Z,9.13
2019-05-22T07:02:56.333Z,6.60
2019-05-22T07:05:25.838Z,7.77
2019-05-22T07:07:55.099Z,10.77
2019-05-22T07:10:24.473Z,7.07
2019-05-22T07:12:54.181Z,7.30
2019-05-22T07:15:30.852Z,6.97
2019-05-22T07:18:01.356Z,7.93
2019-05-22T07:20:32.429Z,8.60
2019-05-22T07:23:05.849Z,7.23
2019-05-22T07:25:36.334Z,7.90
2019-05-22T07:28:06.848Z,7.47
2019-05-22T07:30:36.647Z,8.03
2019-05-22T07:33:06.024Z,6.57
2019-05-22T07:35:56.375Z,7.77
2019-05-22T07:38:08.116Z,8.03
2019-05-22T07:40:37.798Z,6.27
2019-05-22T07:43:07.523Z,6.83
2019-05-22T07:45:37.310Z,6.00
2019-05-22T07:48:08.119Z,5.20
2019-05-22T07:50:42.089Z,7.33
2019-05-22T07:53:11.538Z,7.03
2019-05-22T07:55:41.405Z,6.63
2019-05-22T07:58:15.210Z,6.30
2019-05-22T08:00:50.079Z,8.33
2019-05-22T08:03:20.178Z,5.90
2019-05-22T08:05:53.823Z,6.93
2019-05-22T08:08:25.105Z,7.00
2019-05-22T08:10:56.318Z,6.60
2019-05-22T08:13:27.045Z,6.53
2019-05-22T08:15:56.884Z,7.43
2019-05-22T08:18:28.029Z,7.70
2019-05-22T08:20:57.982Z,5.77
2019-05-22T08:23:28.690Z,6.77
2019-05-22T08:25:59.853Z,6.23
2019-05-22T08:28:31.034Z,5.90
2019-05-22T08:31:01.584Z,5.50
2019-05-22T08:33:32.344Z,5.10
2019-05-22T08:36:02.930Z,9.47
2019-05-22T08:38:33.634Z,6.77
2019-05-22T08:41:05.964Z,7.63
2019-05-22T08:43:56.072Z,6.37
2019-05-22T08:46:08.321Z,11.17
2019-05-22T08:48:47.476Z,5.00
2019-05-22T08:51:12.432Z,6.87
2019-05-22T08:53:47.455Z,6.93
2019-05-22T08:56:14.187Z,7.77
2019-05-22T08:58:44.855Z,6.10
2019-05-22T09:01:14.080Z,10.03
2019-05-22T09:03:43.415Z,11.73
2019-05-22T09:06:12.587Z,6.43
2019-05-22T09:08:41.825Z,7.03
2019-05-22T09:11:11.994Z,8.10
2019-05-22T09:13:41.296Z,6.30
2019-05-22T09:16:12.233Z,5.13
2019-05-22T09:18:42.451Z,6.07
2019-05-22T09:21:11.881Z,6.90
2019-05-22T09:23:42.236Z,8.50
2019-05-22T09:26:11.470Z,6.57
2019-05-22T09:28:40.625Z,6.83
2019-05-22T09:31:09.833Z,5.73
2019-05-22T09:33:39.442Z,6.13
2019-05-22T09:36:09.583Z,7.37
2019-05-22T09:38:39.339Z,6.30
2019-05-22T09:41:08.943Z,7.40
2019-05-22T09:43:38.462Z,9.00
2019-05-22T09:46:08.574Z,6.17
2019-05-22T09:48:38.808Z,5.43
2019-05-22T09:51:07.971Z,7.70
2019-05-22T09:53:43.119Z,5.20
2019-05-22T09:56:13.042Z,5.93
2019-05-22T09:58:42.168Z,5.33
2019-05-22T10:01:13.034Z,5.50
2019-05-22T10:03:43.307Z,5.27
2019-05-22T10:06:12.640Z,5.23
2019-05-22T10:08:41.850Z,5.77
2019-05-22T10:11:11.442Z,6.00
2019-05-22T10:13:41.531Z,5.00
2019-05-22T10:16:11.570Z,5.83
2019-05-22T10:18:41.332Z,4.57
2019-05-22T10:21:10.559Z,5.67
2019-05-22T10:23:39.748Z,15.00
2019-05-22T10:26:09.628Z,4.93
2019-05-22T10:28:39.757Z,5.07
2019-05-22T10:31:10.108Z,5.27
2019-05-22T10:33:40.323Z,6.63
2019-05-22T10:36:09.533Z,5.30
2019-05-22T10:38:38.818Z,4.37
2019-05-22T10:41:08.039Z,4.53
2019-05-22T10:43:37.938Z,4.90
2019-05-22T10:46:08.511Z,5.40
2019-05-22T10:48:40.186Z,5.17
2019-05-22T10:51:09.043Z,6.73
2019-05-22T10:53:39.252Z,6.33
2019-05-22T10:56:08.756Z,8.30
2019-05-22T10:58:38.743Z,8.27
2019-05-22T11:01:09.070Z,5.97
2019-05-22T11:03:39.034Z,6.23
2019-05-22T11:06:08.736Z,6.83
2019-05-22T11:08:38.259Z,6.53
2019-05-22T11:11:08.267Z,6.87
2019-05-22T11:13:38.176Z,6.23
2019-05-22T11:16:09.319Z,9.90
2019-05-22T11:18:38.800Z,9.13
2019-05-22T11:21:08.666Z,7.37
2019-05-22T11:23:51.275Z,8.40
2019-05-22T11:26:08.901Z,10.33
2019-05-22T11:28:38.269Z,8.73
2019-05-22T11:31:08.175Z,7.87
2019-05-22T11:33:37.344Z,9.80
2019-05-22T11:36:06.527Z,9.97
2019-05-22T11:38:36.118Z,14.50
2019-05-22T11:41:11.042Z,9.53
2019-05-22T11:43:40.332Z,10.60
2019-05-22T11:46:09.526Z,11.53
2019-05-22T11:48:38.994Z,12.87
2019-05-22T11:51:08.381Z,11.80
2019-05-22T11:53:37.573Z,11.47
2019-05-22T11:56:06.693Z,9.10
2019-05-22T11:58:36.105Z,10.53
2019-05-22T12:01:06.499Z,10.10
2019-05-22T12:03:36.222Z,11.47
2019-05-22T12:06:07.438Z,12.07
2019-05-22T12:08:36.998Z,14.30
2019-05-22T12:11:09.978Z,13.47
2019-05-22T12:13:39.154Z,15.03
2019-05-22T12:16:08.374Z,11.57
2019-05-22T12:18:38.082Z,12.60
2019-05-22T12:21:07.890Z,12.87
2019-05-22T12:23:38.088Z,10.50
2019-05-22T12:26:08.022Z,12.73
2019-05-22T12:28:37.180Z,11.70
2019-05-22T12:31:07.058Z,13.23
2019-05-22T12:33:36.444Z,11.90
2019-05-22T12:36:06.358Z,11.60
2019-05-22T12:38:35.470Z,10.67
2019-05-22T12:41:04.979Z,12.13
2019-05-22T12:43:34.982Z,10.53
2019-05-22T12:46:04.356Z,12.57
2019-05-22T12:48:34.644Z,13.37
2019-05-22T12:51:05.131Z,15.87
2019-05-22T12:53:34.646Z,12.63
2019-05-22T12:56:04.490Z,14.27
2019-05-22T12:58:34.139Z,15.97
2019-05-22T13:01:04.088Z,16.10
2019-05-22T13:03:36.364Z,12.23
2019-05-22T13:06:07.502Z,15.20
2019-05-22T13:08:37.434Z,16.03
2019-05-22T13:11:06.914Z,18.43
2019-05-22T13:13:39.504Z,15.77
2019-05-22T13:16:09.526Z,15.40
2019-05-22T13:18:39.948Z,15.83
2019-05-22T13:21:12.634Z,14.67
2019-05-22T13:23:43.655Z,14.53
2019-05-22T13:26:13.445Z,16.57
2019-05-22T13:28:45.930Z,14.60
2019-05-22T13:31:15.887Z,14.33
2019-05-22T13:33:46.014Z,17.97
2019-05-22T13:36:16.035Z,15.50
2019-05-22T13:38:46.015Z,15.60
2019-05-22T13:41:15.988Z,16.03
2019-05-22T13:43:45.965Z,15.87
2019-05-22T13:46:15.382Z,15.53
2019-05-22T13:48:45.209Z,18.27
2019-05-22T13:51:15.048Z,18.90
2019-05-22T13:53:45.670Z,14.70
2019-05-22T13:56:17.358Z,16.83
2019-05-22T13:58:46.735Z,16.93
2019-05-22T14:01:15.803Z,14.57
2019-05-22T14:03:45.352Z,17.07
2019-05-22T14:06:14.653Z,17.53
2019-05-22T14:08:44.746Z,17.67
2019-05-22T14:11:15.019Z,18.20
2019-05-22T14:13:44.644Z,17.60
2019-05-22T14:16:14.931Z,23.37
2019-05-22T14:18:44.558Z,20.00
2019-05-22T14:21:13.786Z,17.67
2019-05-22T14:23:43.136Z,19.63
2019-05-22T14:26:12.567Z,15.30
2019-05-22T14:28:46.394Z,17.30
2019-05-22T14:31:16.418Z,19.43
2019-05-22T14:33:45.725Z,16.70
2019-05-22T14:36:15.134Z,20.13
2019-05-22T14:38:45.062Z,18.50
2019-05-22T14:41:14.855Z,17.77
2019-05-22T14:43:44.527Z,19.67
2019-05-22T14:46:14.085Z,16.37
2019-05-22T14:48:43.431Z,15.33
2019-05-22T14:51:12.995Z,14.97
2019-05-22T14:53:43.038Z,13.97
2019-05-22T14:56:12.243Z,17.17
2019-05-22T14:58:43.611Z,14.20
2019-05-22T15:01:13.520Z,14.73
2019-05-22T15:03:43.708Z,17.77
2019-05-22T15:06:13.195Z,14.13
2019-05-22T15:08:42.419Z,15.10
2019-05-22T15:11:12.115Z,17.00
2019-05-22T15:13:41.399Z,16.40
2019-05-22T15:16:11.526Z,16.67
2019-05-22T15:18:41.290Z,13.07
2019-05-22T15:21:11.324Z,12.20
2019-05-22T15:23:41.296Z,15.87
2019-05-22T15:26:11.021Z,15.37
2019-05-22T15:28:40.586Z,15.47
2019-05-22T15:31:10.234Z,14.67
2019-05-22T15:33:40.359Z,19.90
2019-05-22T15:36:10.621Z,13.93
2019-05-22T15:38:42.135Z,17.33
2019-05-22T15:41:12.593Z,12.87
2019-05-22T15:43:43.747Z,13.70
2019-05-22T15:46:15.507Z,15.13
2019-05-22T15:48:47.302Z,17.00
2019-05-22T15:51:21.112Z,14.87
2019-05-22T15:53:51.270Z,12.60
2019-05-22T15:56:20.706Z,15.40
2019-05-22T15:58:53.451Z,15.43
2019-05-22T16:01:25.522Z,14.43
2019-05-22T16:03:56.605Z,25.67
2019-05-22T16:06:28.092Z,12.33
2019-05-22T16:08:59.018Z,13.43
2019-05-22T16:11:29.726Z,14.00
2019-05-22T16:14:00.829Z,12.53
2019-05-22T16:16:31.577Z,14.63
2019-05-22T16:19:04.919Z,13.93
2019-05-22T16:21:34.823Z,13.20
2019-05-22T16:24:05.660Z,15.27
2019-05-22T16:26:35.674Z,11.90
2019-05-22T16:29:05.923Z,15.30
2019-05-22T16:31:36.879Z,14.33
2019-05-22T16:34:06.245Z,11.57
2019-05-22T16:36:35.757Z,14.77
2019-05-22T16:39:07.463Z,13.03
2019-05-22T16:41:37.221Z,14.07
2019-05-22T16:44:07.051Z,13.43
2019-05-22T16:46:37.638Z,11.50
2019-05-22T16:49:07.941Z,11.40
2019-05-22T16:51:37.975Z,14.43
2019-05-22T16:54:08.547Z,10.80
2019-05-22T16:56:39.380Z,13.27
2019-05-22T16:59:11.816Z,11.73
2019-05-22T17:01:57.765Z,15.03
2019-05-22T17:04:12.945Z,8.80
2019-05-22T17:06:43.335Z,13.97
2019-05-22T17:09:15.903Z,12.17
2019-05-22T17:11:45.875Z,10.47
2019-05-22T17:14:16.768Z,14.53
2019-05-22T17:16:47.386Z,9.37
2019-05-22T17:19:26.343Z,13.83
2019-05-22T17:21:48.062Z,7.77
2019-05-22T17:24:19.578Z,12.07
2019-05-22T17:26:52.538Z,10.17
2019-05-22T17:29:22.094Z,11.80
2019-05-22T17:31:52.317Z,8.47
2019-05-22T17:34:34.675Z,8.00
2019-05-22T17:37:09.688Z,6.53
2019-05-22T17:39:40.881Z,8.83
2019-05-22T17:42:12.502Z,6.57
2019-05-22T17:44:44.083Z,6.50
2019-05-22T17:47:14.508Z,9.70
2019-05-22T17:49:44.273Z,7.30
2019-05-22T17:52:14.443Z,5.90
2019-05-22T17:54:43.501Z,9.90
2019-05-22T17:57:13.980Z,10.67
2019-05-22T17:59:43.452Z,8.90
2019-05-22T18:02:14.557Z,8.03
2019-05-22T18:04:43.938Z,11.17
2019-05-22T18:07:13.417Z,11.43
2019-05-22T18:09:43.152Z,9.13
2019-05-22T18:12:13.225Z,8.97
2019-05-22T18:14:42.474Z,8.10
2019-05-22T18:17:15.730Z,7.17
2019-05-22T18:19:44.899Z,7.03
2019-05-22T18:22:16.356Z,8.23
2019-05-22T18:24:45.483Z,7.03
2019-05-22T18:27:14.554Z,9.07
2019-05-22T18:29:43.708Z,8.43
2019-05-22T18:32:16.171Z,9.93
2019-05-22T18:34:45.237Z,9.70
2019-05-22T18:37:14.556Z,6.70
2019-05-22T18:39:43.761Z,10.70
2019-05-22T18:42:13.267Z,7.53
2019-05-22T18:44:42.404Z,7.97
2019-05-22T18:47:12.014Z,5.87
2019-05-22T18:49:41.213Z,6.27
2019-05-22T18:52:11.295Z,8.37
2019-05-22T18:54:40.382Z,8.63
2019-05-22T18:57:09.540Z,7.97
2019-05-22T18:59:38.660Z,9.80
2019-05-22T19:02:08.274Z,8.63
2019-05-22T19:04:37.886Z,5.90
2019-05-22T19:07:07.168Z,6.67
2019-05-22T19:09:36.247Z,7.13
2019-05-22T19:12:05.616Z,6.87
2019-05-22T19:14:34.902Z,7.23
2019-05-22T19:17:04.850Z,7.30
2019-05-22T19:19:35.610Z,5.93
2019-05-22T19:22:04.933Z,5.10
2019-05-22T19:24:34.119Z,7.77
2019-05-22T19:27:03.482Z,8.00
2019-05-22T19:29:32.786Z,13.57
2019-05-22T19:32:01.970Z,4.60
2019-05-22T19:34:32.679Z,4.33
2019-05-22T19:37:02.082Z,6.20
2019-05-22T19:39:31.687Z,6.77
2019-05-22T19:42:04.452Z,5.93
2019-05-22T19:44:32.144Z,8.43
2019-05-22T19:47:01.547Z,7.43
2019-05-22T19:49:31.077Z,5.70
2019-05-22T19:52:00.230Z,6.73
2019-05-22T19:54:29.432Z,6.67
2019-05-22T19:56:59.406Z,5.33
2019-05-22T19:59:29.700Z,5.70
2019-05-22T20:01:59.123Z,6.53
2019-05-22T20:04:29.056Z,9.73
2019-05-22T20:06:59.019Z,4.87
2019-05-22T20:09:28.526Z,10.20
2019-05-22T20:11:57.848Z,7.47
2019-05-22T20:14:30.477Z,7.97
2019-05-22T20:16:57.760Z,4.00
2019-05-22T20:19:27.227Z,4.63
2019-05-22T20:21:59.964Z,4.97
2019-05-22T20:24:27.860Z,6.10
2019-05-22T20:26:57.334Z,3.93
2019-05-22T20:29:27.475Z,8.27
2019-05-22T20:31:57.019Z,7.20
2019-05-22T20:34:26.410Z,4.90
2019-05-22T20:36:57.029Z,5.60
2019-05-22T20:39:29.299Z,5.57
2019-05-22T20:41:57.780Z,5.60
2019-05-22T20:44:27.995Z,6.27
2019-05-22T20:46:57.193Z,3.73
2019-05-22T20:49:26.986Z,8.43
2019-05-22T20:51:56.073Z,7.40
2019-05-22T20:54:26.623Z,4.63
2019-05-22T20:56:57.051Z,5.60
2019-05-22T20:59:27.522Z,6.23
2019-05-22T21:01:58.396Z,4.97
2019-05-22T21:04:29.401Z,5.90
2019-05-22T21:07:02.066Z,4.87
2019-05-22T21:09:31.399Z,4.17
2019-05-22T21:12:01.502Z,4.97
2019-05-22T21:14:30.797Z,3.93
2019-05-22T21:17:00.807Z,5.63
2019-05-22T21:19:31.430Z,4.10
2019-05-22T21:22:00.923Z,5.50
2019-05-22T21:24:30.292Z,4.47
2019-05-22T21:26:59.598Z,8.37
2019-05-22T21:29:29.145Z,4.10
2019-05-22T21:31:59.602Z,6.47
2019-05-22T21:34:29.718Z,6.27
2019-05-22T21:36:59.461Z,7.07
2019-05-22T21:39:29.514Z,5.00
2019-05-22T21:41:58.882Z,7.20
2019-05-22T21:44:28.238Z,4.60
2019-05-22T21:46:57.818Z,4.83
2019-05-22T21:49:29.169Z,6.17
2019-05-22T21:51:59.440Z,5.07
2019-05-22T21:54:29.714Z,4.53
2019-05-22T21:56:58.909Z,5.47
2019-05-22T21:59:28.178Z,5.53
2019-05-22T22:02:03.970Z,4.53
2019-05-22T22:04:36.807Z,5.63
2019-05-22T22:07:06.777Z,7.03
2019-05-22T22:09:37.209Z,5.80
2019-05-22T22:12:09.158Z,7.90
2019-05-22T22:14:39.878Z,14.57
2019-05-22T22:17:10.003Z,6.57
2019-05-22T22:19:40.355Z,5.17
2019-05-22T22:22:13.203Z,5.60
2019-05-22T22:24:42.658Z,6.93
2019-05-22T22:27:11.850Z,6.43
2019-05-22T22:29:41.777Z,4.83
2019-05-22T22:32:12.696Z,7.40
2019-05-22T22:34:46.309Z,5.57
2019-05-22T22:37:16.288Z,4.73
2019-05-22T22:39:49.833Z,5.37
2019-05-22T22:42:21.726Z,5.30
2019-05-22T22:44:54.183Z,8.87
2019-05-22T22:47:34.990Z,4.77
2019-05-22T22:50:06.763Z,6.60
2019-05-22T22:52:36.483Z,6.33
2019-05-22T22:55:07.789Z,5.87
2019-05-22T22:57:38.300Z,10.03
2019-05-22T23:00:09.843Z,6.03
2019-05-22T23:02:40.489Z,6.27
2019-05-22T23:05:11.970Z,7.70
2019-05-22T23:07:42.055Z,5.83
2019-05-22T23:10:13.151Z,5.17
2019-05-22T23:12:42.841Z,5.70
2019-05-22T23:15:14.210Z,4.90
2019-05-22T23:17:43.681Z,5.43
2019-05-22T23:20:11.666Z,5.87
2019-05-22T23:22:40.061Z,4.00
2019-05-22T23:25:11.534Z,6.43
2019-05-22T23:27:40.727Z,5.07
2019-05-22T23:30:10.691Z,4.63
2019-05-22T23:32:41.830Z,9.13
2019-05-22T23:35:11.736Z,6.47
2019-05-22T23:37:41.253Z,7.73
2019-05-22T23:40:13.105Z,6.03
2019-05-22T23:42:43.453Z,5.00
2019-05-22T23:45:16.878Z,4.77
2019-05-22T23:48:17.101Z,4.63
2019-05-22T23:50:48.256Z,5.30
2019-05-22T23:53:18.445Z,9.30
2019-05-22T23:55:48.545Z,5.93
2019-05-22T23:58:20.112Z,8.27
